Time;durP1;ratioP1;P1;durP2;ratioP2;P2;SDS_P1;SDS_P2;PMS_P1;PMS_P2;Temp;Humidity;BMP_temperature;BMP_pressure;BME280_temperature;BME280_humidity;BME280_pressure;Samples;Min_cycle;Max_cycle;Signal;HPM_P1;HPM_P2
2023/04/01 00:00:57;;;;;;;1999.90;999.90;;;25.40;95.20;;;;;;5029461;28;20037;-71
2023/04/01 00:03:26;;;;;;;1999.90;999.90;;;25.50;94.80;;;;;;5033653;28;20025;-71
2023/04/01 00:05:55;;;;;;;1999.90;999.90;;;25.60;94.90;;;;;;5030051;28;20045;-70
2023/04/01 00:08:23;;;;;;;1999.90;999.90;;;25.70;95.00;;;;;;5037179;28;20040;-70
2023/04/01 00:10:51;;;;;;;1999.90;999.90;;;25.70;94.60;;;;;;5039511;28;20044;-70
2023/04/01 00:13:18;;;;;;;1999.90;999.90;;;25.50;94.70;;;;;;5031771;28;20130;-71
2023/04/01 00:15:46;;;;;;;1999.90;999.90;;;25.20;95.00;;;;;;5033039;28;20191;-71
2023/04/01 00:18:13;;;;;;;1999.90;999.90;;;25.00;95.00;;;;;;5035247;28;20522;-70
2023/04/01 00:20:48;;;;;;;1999.90;999.90;;;24.80;95.80;;;;;;5035937;28;20029;-69
2023/04/01 00:23:16;;;;;;;1999.90;999.90;;;24.60;96.30;;;;;;5035449;28;20036;-70
2023/04/01 00:25:47;;;;;;;1999.90;999.90;;;24.50;96.20;;;;;;5032466;28;20025;-71
2023/04/01 00:28:19;;;;;;;1999.90;999.90;;;24.30;96.20;;;;;;5033265;28;20160;-71
2023/04/01 00:30:47;;;;;;;1999.90;999.90;;;24.20;96.60;;;;;;5036426;28;20036;-70
2023/04/01 00:33:16;;;;;;;1999.90;999.90;;;24.10;96.80;;;;;;5030235;28;20801;-70
2023/04/01 00:35:44;;;;;;;1999.90;999.90;;;24.00;97.20;;;;;;5028357;28;20128;-72
2023/04/01 00:38:12;;;;;;;1999.90;999.90;;;23.70;96.90;;;;;;5028701;28;20095;-73
2023/04/01 00:40:42;;;;;;;1999.90;999.90;;;23.70;97.70;;;;;;5032933;28;20026;-71
2023/04/01 00:43:20;;;;;;;1999.90;999.90;;;23.70;97.50;;;;;;5025545;28;20029;-75
2023/04/01 00:45:51;;;;;;;1999.90;999.90;;;23.70;97.40;;;;;;4940249;28;2544693;-72
2023/04/01 00:48:23;;;;;;;1999.90;999.90;;;23.60;97.10;;;;;;5033925;28;20267;-77
2023/04/01 00:51:07;;;;;;;1999.90;999.90;;;23.50;97.70;;;;;;5041841;28;20032;-69
2023/04/01 00:53:38;;;;;;;1999.90;999.90;;;23.50;97.10;;;;;;5034835;28;20092;-71
2023/04/01 00:56:15;;;;;;;1999.90;999.90;;;23.50;97.90;;;;;;5030665;28;20112;-70
2023/04/01 00:58:50;;;;;;;1999.90;999.90;;;23.40;97.90;;;;;;5034411;28;20029;-68
2023/04/01 01:01:17;;;;;;;1999.90;999.90;;;23.30;97.70;;;;;;5033701;28;20040;-70
2023/04/01 01:03:45;;;;;;;1999.90;999.90;;;23.30;98.10;;;;;;5018602;28;20037;-78
2023/04/01 01:06:47;;;;;;;1999.90;999.90;;;23.40;98.30;;;;;;5023979;28;20032;-69
2023/04/01 01:09:51;;;;;;;1999.90;999.90;;;24.00;97.80;;;;;;5021426;28;20041;-77
2023/04/01 01:12:35;;;;;;;1999.90;999.90;;;24.40;96.70;;;;;;5031070;28;20036;-78
2023/04/01 01:15:26;;;;;;;1999.90;999.90;;;24.10;97.00;;;;;;5033426;28;20060;-70
2023/04/01 01:18:25;;;;;;;1999.90;999.90;;;23.70;97.30;;;;;;5023080;28;20025;-77
2023/04/01 01:21:19;;;;;;;1999.90;999.90;;;23.50;97.60;;;;;;5031778;28;20075;-77
2023/04/01 01:23:58;;;;;;;1999.90;999.90;;;23.20;97.70;;;;;;5044307;28;20029;-76
2023/04/01 01:27:02;;;;;;;1999.90;999.90;;;23.00;98.30;;;;;;5030133;28;20029;-79
2023/04/01 01:30:05;;;;;;;1999.90;999.90;;;22.80;98.40;;;;;;5025577;28;20037;-72
2023/04/01 01:32:56;;;;;;;1999.90;999.90;;;22.60;98.60;;;;;;5023957;28;20504;-80
2023/04/01 01:35:38;;;;;;;1999.90;999.90;;;22.30;99.00;;;;;;5025781;28;20041;-71
2023/04/01 01:38:13;;;;;;;1999.90;999.90;;;22.20;99.50;;;;;;5028837;28;20022;-74
2023/04/01 01:40:45;;;;;;;1999.90;999.90;;;22.20;99.80;;;;;;5022732;28;20030;-69
2023/04/01 01:43:15;;;;;;;1999.90;999.90;;;22.20;99.90;;;;;;5022909;28;20028;-78
2023/04/01 01:45:49;;;;;;;1999.90;999.90;;;22.20;99.80;;;;;;5029641;28;20574;-72
2023/04/01 01:48:18;;;;;;;1999.90;999.90;;;22.20;99.60;;;;;;5020889;28;20646;-69
2023/04/01 01:50:48;;;;;;;1999.90;999.90;;;22.20;99.90;;;;;;5027176;28;20040;-77
2023/04/01 01:53:16;;;;;;;1999.90;999.90;;;22.20;99.90;;;;;;5023516;28;20063;-75
2023/04/01 01:55:47;;;;;;;1999.90;999.90;;;22.20;99.90;;;;;;5027815;28;20051;-79
2023/04/01 01:58:40;;;;;;;1999.90;999.90;;;22.10;99.90;;;;;;5032169;28;20021;-76
2023/04/01 02:01:15;;;;;;;1999.90;999.90;;;22.10;99.90;;;;;;5033088;28;20038;-73
2023/04/01 02:03:45;;;;;;;1999.90;999.90;;;21.80;99.90;;;;;;5030466;28;20029;-77
2023/04/01 02:06:16;;;;;;;1999.90;999.90;;;21.60;99.90;;;;;;5035773;28;20504;-72
2023/04/01 02:08:51;;;;;;;1999.90;999.90;;;21.30;99.90;;;;;;5026949;28;20060;-78
2023/04/01 02:11:23;;;;;;;1999.90;999.90;;;21.20;99.90;;;;;;5028751;28;20368;-77
2023/04/01 02:13:59;;;;;;;1999.90;999.90;;;21.10;99.90;;;;;;5033025;28;20107;-81
2023/04/01 02:16:39;;;;;;;1999.90;999.90;;;21.10;99.90;;;;;;5037169;28;20087;-80
2023/04/01 02:19:09;;;;;;;1999.90;999.90;;;21.10;99.90;;;;;;5034099;28;20029;-71
2023/04/01 02:21:38;;;;;;;1999.90;999.90;;;21.10;99.90;;;;;;5039202;28;20025;-76
2023/04/01 02:24:10;;;;;;;1999.90;999.90;;;21.30;99.90;;;;;;5026532;28;20994;-77
2023/04/01 02:26:38;;;;;;;1999.90;999.90;;;21.50;99.90;;;;;;5030536;28;20030;-76
2023/04/01 02:29:08;;;;;;;1999.90;999.90;;;21.60;99.90;;;;;;5028227;28;20029;-77
2023/04/01 02:31:36;;;;;;;1999.90;999.90;;;21.70;99.90;;;;;;5030484;28;20034;-77
2023/04/01 02:34:04;;;;;;;1999.90;999.90;;;22.10;99.90;;;;;;5021976;28;20017;-78
2023/04/01 02:36:33;;;;;;;1999.90;999.90;;;22.40;99.90;;;;;;5034255;28;20120;-77
2023/04/01 02:39:02;;;;;;;1999.90;999.90;;;22.50;99.90;;;;;;5026287;28;20426;-71
2023/04/01 02:41:30;;;;;;;1999.90;999.90;;;22.60;99.90;;;;;;5025539;28;20104;-78
2023/04/01 02:43:59;;;;;;;1999.90;999.90;;;22.90;99.90;;;;;;5025151;28;20025;-77
2023/04/01 02:46:26;;;;;;;1999.90;999.90;;;23.10;99.90;;;;;;5032673;28;20056;-77
2023/04/01 02:48:53;;;;;;;1999.90;999.90;;;23.40;99.90;;;;;;5030730;28;20097;-75
2023/04/01 02:51:21;;;;;;;1999.90;999.90;;;23.50;99.90;;;;;;5033433;28;20025;-78
2023/04/01 02:53:48;;;;;;;1999.90;999.90;;;23.70;99.70;;;;;;5029977;28;20040;-77
2023/04/01 02:56:15;;;;;;;1999.90;999.90;;;23.80;99.10;;;;;;5031792;28;20037;-76
2023/04/01 02:58:42;;;;;;;1999.90;999.90;;;23.90;98.60;;;;;;5037509;28;20025;-73
2023/04/01 03:01:10;;;;;;;1999.90;999.90;;;23.70;98.90;;;;;;5032457;28;20030;-74
2023/04/01 03:03:37;;;;;;;1999.90;999.90;;;23.60;99.20;;;;;;5031907;28;20049;-78
2023/04/01 03:06:13;;;;;;;1999.90;999.90;;;23.50;98.90;;;;;;5042044;28;20128;-75
2023/04/01 03:08:41;;;;;;;1999.90;999.90;;;23.20;98.80;;;;;;5039272;28;20052;-77
2023/04/01 03:11:09;;;;;;;1999.90;999.90;;;22.90;99.40;;;;;;5044819;28;20041;-76
2023/04/01 03:13:37;;;;;;;1999.90;999.90;;;22.50;99.90;;;;;;5034420;28;20033;-70
2023/04/01 03:16:04;;;;;;;1999.90;999.90;;;22.30;99.90;;;;;;5033494;28;20048;-76
2023/04/01 03:18:32;;;;;;;1999.90;999.90;;;22.00;99.90;;;;;;5025919;28;20021;-74
2023/04/01 03:21:17;;;;;;;1999.90;999.90;;;21.80;99.90;;;;;;5027785;28;20029;-77
2023/04/01 03:23:45;;;;;;;1999.90;999.90;;;21.60;99.90;;;;;;5026558;28;20028;-75
2023/04/01 03:26:13;;;;;;;1999.90;999.90;;;21.20;99.90;;;;;;5029384;28;20140;-68
2023/04/01 03:28:41;;;;;;;1999.90;999.90;;;21.00;99.90;;;;;;5021228;28;20484;-78
2023/04/01 03:31:11;;;;;;;1999.90;999.90;;;20.90;99.90;;;;;;5018743;28;20047;-75
2023/04/01 03:33:39;;;;;;;1999.90;999.90;;;20.80;99.90;;;;;;5015359;28;20028;-70
2023/04/01 03:36:07;;;;;;;1999.90;999.90;;;20.70;99.90;;;;;;5023354;28;20037;-68
2023/04/01 03:38:37;;;;;;;1999.90;999.90;;;20.60;99.90;;;;;;5023937;28;20025;-76
2023/04/01 03:41:05;;;;;;;1999.90;999.90;;;20.40;99.90;;;;;;5023715;28;20096;-77
2023/04/01 03:43:32;;;;;;;1999.90;999.90;;;20.40;99.90;;;;;;5028465;28;20021;-78
2023/04/01 03:46:00;;;;;;;1999.90;999.90;;;20.30;99.90;;;;;;5030718;28;20130;-76
2023/04/01 03:48:27;;;;;;;1999.90;999.90;;;20.30;99.90;;;;;;5037107;28;20021;-77
2023/04/01 03:50:54;;;;;;;1999.90;999.90;;;20.20;99.90;;;;;;5036303;28;20107;-75
2023/04/01 03:53:22;;;;;;;1999.90;999.90;;;20.20;99.90;;;;;;5037685;28;20116;-73
2023/04/01 03:55:51;;;;;;;1999.90;999.90;;;20.20;99.90;;;;;;5035445;28;20029;-73
2023/04/01 03:58:18;;;;;;;1999.90;999.90;;;20.30;99.90;;;;;;5039081;28;20036;-73
2023/04/01 04:00:45;;;;;;;1999.90;999.90;;;20.30;99.90;;;;;;5040480;28;20037;-73
2023/04/01 04:03:13;;;;;;;1999.90;999.90;;;20.20;99.90;;;;;;5030349;28;20397;-72
2023/04/01 04:05:48;;;;;;;1999.90;999.90;;;20.20;99.90;;;;;;5037342;28;20025;-74
2023/04/01 04:08:15;;;;;;;1999.90;999.90;;;20.10;99.90;;;;;;5033609;28;20113;-75
2023/04/01 04:10:43;;;;;;;1999.90;999.90;;;20.10;99.90;;;;;;5035133;28;20030;-75
2023/04/01 04:13:11;;;;;;;1999.90;999.90;;;20.10;99.90;;;;;;5037354;28;20056;-73
2023/04/01 04:15:39;;;;;;;1999.90;999.90;;;20.10;99.90;;;;;;5035851;28;20416;-74
2023/04/01 04:18:06;;;;;;;1999.90;999.90;;;20.10;99.90;;;;;;5016334;28;20092;-72
2023/04/01 04:20:34;;;;;;;1999.90;999.90;;;20.30;99.90;;;;;;5028786;28;20044;-72
2023/04/01 04:23:02;;;;;;;1999.90;999.90;;;20.40;99.90;;;;;;5033985;28;20176;-72
2023/04/01 04:25:29;;;;;;;1999.90;999.90;;;20.60;99.90;;;;;;5036475;28;20025;-72
2023/04/01 04:27:56;;;;;;;1999.90;999.90;;;20.70;99.90;;;;;;5034123;28;20119;-75
2023/04/01 04:30:24;;;;;;;1999.90;999.90;;;20.80;99.90;;;;;;5033507;28;20041;-74
2023/04/01 04:32:51;;;;;;;1999.90;999.90;;;20.90;99.90;;;;;;5033167;28;20021;-74
2023/04/01 04:35:18;;;;;;;1999.90;999.90;;;21.10;99.90;;;;;;5033929;28;20077;-74
2023/04/01 04:37:46;;;;;;;1999.90;999.90;;;21.10;99.90;;;;;;5033943;28;20148;-74
2023/04/01 04:40:13;;;;;;;1999.90;999.90;;;21.10;99.90;;;;;;5026481;28;20496;-70
2023/04/01 04:42:40;;;;;;;1999.90;999.90;;;21.20;99.90;;;;;;5033439;28;20044;-74
2023/04/01 04:45:08;;;;;;;1999.90;999.90;;;21.40;99.90;;;;;;5031075;28;20029;-73
2023/04/01 04:47:35;;;;;;;1999.90;999.90;;;21.60;99.90;;;;;;5037534;28;20091;-75
2023/04/01 04:50:02;;;;;;;1999.90;999.90;;;21.70;99.90;;;;;;5041204;28;20029;-72
2023/04/01 04:52:30;;;;;;;1999.90;999.90;;;21.70;99.90;;;;;;5029606;28;20057;-76
2023/04/01 04:54:57;;;;;;;1999.90;999.90;;;21.70;99.90;;;;;;5030446;28;20040;-74
2023/04/01 04:57:24;;;;;;;1999.90;999.90;;;21.70;99.90;;;;;;5031298;28;20098;-76
2023/04/01 04:59:52;;;;;;;1999.90;999.90;;;21.70;99.90;;;;;;5029757;28;20033;-75
2023/04/01 05:02:19;;;;;;;1999.90;999.90;;;21.80;99.90;;;;;;5029605;28;20030;-72
2023/04/01 05:04:46;;;;;;;1999.90;999.90;;;21.80;99.90;;;;;;5029056;28;20029;-74
2023/04/01 05:07:14;;;;;;;1999.90;999.90;;;21.80;99.90;;;;;;5031339;28;20395;-72
2023/04/01 05:09:41;;;;;;;1999.90;999.90;;;21.90;99.90;;;;;;5031150;28;20041;-76
2023/04/01 05:12:09;;;;;;;1999.90;999.90;;;22.00;99.90;;;;;;5030791;28;20052;-75
2023/04/01 05:14:36;;;;;;;1999.90;999.90;;;22.00;99.90;;;;;;5041498;28;20514;-74
2023/04/01 05:17:03;;;;;;;1999.90;999.90;;;22.00;99.90;;;;;;5032857;28;20046;-77
2023/04/01 05:19:31;;;;;;;1999.90;999.90;;;21.90;99.90;;;;;;5031301;28;20033;-74
2023/04/01 05:21:58;;;;;;;1999.90;999.90;;;21.80;99.90;;;;;;5035651;28;20040;-70
2023/04/01 05:24:25;;;;;;;1999.90;999.90;;;21.60;99.90;;;;;;5034784;28;20483;-74
2023/04/01 05:26:53;;;;;;;1999.90;999.90;;;21.50;99.90;;;;;;5032241;28;20116;-77
2023/04/01 05:29:20;;;;;;;1999.90;999.90;;;21.40;99.90;;;;;;5033674;28;20480;-75
2023/04/01 05:31:47;;;;;;;1999.90;999.90;;;21.40;99.90;;;;;;5035516;28;20033;-77
2023/04/01 05:34:15;;;;;;;1999.90;999.90;;;21.30;99.90;;;;;;5032836;28;20037;-75
2023/04/01 05:36:44;;;;;;;1999.90;999.90;;;21.30;99.90;;;;;;5036117;28;20081;-76
2023/04/01 05:39:11;;;;;;;1999.90;999.90;;;21.30;99.90;;;;;;5034874;28;20037;-77
2023/04/01 05:41:40;;;;;;;1999.90;999.90;;;21.30;99.90;;;;;;5027418;28;20034;-74
2023/04/01 05:44:07;;;;;;;1999.90;999.90;;;21.10;99.90;;;;;;5033242;28;20089;-71
2023/04/01 05:46:34;;;;;;;1999.90;999.90;;;21.30;99.90;;;;;;5034113;28;20049;-68
2023/04/01 05:49:02;;;;;;;1999.90;999.90;;;21.40;99.90;;;;;;5035334;28;20043;-73
2023/04/01 05:51:29;;;;;;;1999.90;999.90;;;21.40;99.90;;;;;;5037768;28;20120;-72
2023/04/01 05:53:58;;;;;;;1999.90;999.90;;;21.30;99.90;;;;;;5030571;28;20032;-68
2023/04/01 05:56:26;;;;;;;1999.90;999.90;;;21.30;99.90;;;;;;5035285;28;20409;-71
2023/04/01 05:58:54;;;;;;;1999.90;999.90;;;21.10;99.90;;;;;;5031015;28;20090;-69
2023/04/01 06:01:22;;;;;;;1999.90;999.90;;;21.00;99.90;;;;;;5033963;28;20423;-77
2023/04/01 06:03:49;;;;;;;1999.90;999.90;;;21.00;99.90;;;;;;5027714;28;20025;-78
2023/04/01 06:06:28;;;;;;;1999.90;999.90;;;20.90;99.90;;;;;;5033825;28;20491;-74
2023/04/01 06:08:58;;;;;;;1999.90;999.90;;;20.80;99.90;;;;;;5018957;28;20567;-75
2023/04/01 06:11:47;;;;;;;1999.90;999.90;;;20.60;99.90;;;;;;5027398;28;20040;-73
2023/04/01 06:14:38;;;;;;;1999.90;999.90;;;20.50;99.90;;;;;;5028074;28;20083;-74
2023/04/01 06:17:30;;;;;;;1999.90;999.90;;;20.40;99.90;;;;;;5029309;28;20082;-74
2023/04/01 06:20:06;;;;;;;1999.90;999.90;;;20.40;99.90;;;;;;5029575;28;20476;-71
2023/04/01 06:22:47;;;;;;;1999.90;999.90;;;20.40;99.90;;;;;;5034421;28;20083;-75
2023/04/01 06:25:43;;;;;;;1999.90;999.90;;;20.40;99.90;;;;;;5029123;28;20033;-75
2023/04/01 06:28:19;;;;;;;1999.90;999.90;;;20.40;99.90;;;;;;5028447;28;20033;-73
2023/04/01 06:31:06;;;;;;;1999.90;999.90;;;20.40;99.90;;;;;;5031887;28;20040;-71
2023/04/01 06:33:56;;;;;;;1999.90;999.90;;;20.40;99.90;;;;;;5025427;28;20049;-77
2023/04/01 06:36:56;;;;;;;1999.90;999.90;;;20.40;99.90;;;;;;5025801;28;20037;-76
2023/04/01 06:39:32;;;;;;;1999.90;999.90;;;20.40;99.90;;;;;;5028480;28;20033;-75
2023/04/01 06:42:25;;;;;;;1999.90;999.90;;;20.20;99.90;;;;;;5024136;28;20083;-73
2023/04/01 06:45:12;;;;;;;1999.90;999.90;;;20.20;99.90;;;;;;5028750;28;20104;-75
2023/04/01 06:48:17;;;;;;;1999.90;999.90;;;20.10;99.90;;;;;;5025907;28;20180;-76
2023/04/01 06:50:59;;;;;;;1999.90;999.90;;;20.10;99.90;;;;;;5022732;28;20030;-76
2023/04/01 06:54:05;;;;;;;1999.90;999.90;;;20.00;99.90;;;;;;5025388;28;20484;-76
2023/04/01 06:56:35;;;;;;;1999.90;999.90;;;20.00;99.90;;;;;;5021069;28;20081;-77
2023/04/01 06:59:07;;;;;;;1999.90;999.90;;;20.00;99.90;;;;;;5042134;28;20103;-72
2023/04/01 07:01:48;;;;;;;1999.90;999.90;;;19.90;99.90;;;;;;5033293;28;20103;-69
2023/04/01 07:04:30;;;;;;;1999.90;999.90;;;19.80;99.90;;;;;;5035673;28;20028;-73
2023/04/01 07:07:13;;;;;;;1999.90;999.90;;;19.80;99.90;;;;;;5031373;28;20044;-75
2023/04/01 07:09:47;;;;;;;1999.90;999.90;;;19.80;99.90;;;;;;5032921;28;20056;-73
2023/04/01 07:12:29;;;;;;;1999.90;999.90;;;19.80;99.90;;;;;;5025547;28;20094;-72
2023/04/01 07:14:58;;;;;;;1999.90;999.90;;;19.80;99.90;;;;;;5034180;28;20045;-74
2023/04/01 07:17:31;;;;;;;1999.90;999.90;;;19.80;99.90;;;;;;5035946;28;20087;-70
2023/04/01 07:20:26;;;;;;;1999.90;999.90;;;19.80;99.90;;;;;;5034840;28;20100;-70
2023/04/01 07:23:15;;;;;;;1999.90;999.90;;;19.70;99.90;;;;;;5031940;28;20083;-70
2023/04/01 07:25:46;;;;;;;1999.90;999.90;;;19.60;99.90;;;;;;5044199;28;20032;-69
2023/04/01 07:28:19;;;;;;;1999.90;999.90;;;19.50;99.90;;;;;;5037389;28;20029;-70
2023/04/01 07:30:46;;;;;;;1999.90;999.90;;;19.50;99.90;;;;;;5039605;28;20136;-70
2023/04/01 07:33:38;;;;;;;1999.90;999.90;;;19.50;99.90;;;;;;5039717;28;20510;-70
2023/04/01 07:36:36;;;;;;;1999.90;999.90;;;19.40;99.90;;;;;;5038242;28;20049;-70
2023/04/01 07:39:12;;;;;;;1999.90;999.90;;;19.40;99.90;;;;;;5033082;28;20037;-69
2023/04/01 07:42:10;;;;;;;1999.90;999.90;;;19.40;99.90;;;;;;5039931;28;20048;-69
2023/04/01 07:44:43;;;;;;;1999.90;999.90;;;19.30;99.90;;;;;;5030701;28;20030;-69
2023/04/01 07:47:17;;;;;;;1999.90;999.90;;;19.20;99.90;;;;;;5032620;28;20052;-69
2023/04/01 07:49:45;;;;;;;1999.90;999.90;;;19.20;99.90;;;;;;5032356;28;20034;-70
2023/04/01 07:52:26;;;;;;;1999.90;999.90;;;19.10;99.90;;;;;;5036289;28;20113;-70
2023/04/01 07:55:16;;;;;;;1999.90;999.90;;;19.10;99.90;;;;;;5036859;28;20426;-69
2023/04/01 07:58:03;;;;;;;1999.90;999.90;;;19.00;99.90;;;;;;5026944;28;20044;-70
2023/04/01 08:01:09;;;;;;;1999.90;999.90;;;19.00;99.90;;;;;;5027431;28;20104;-69
2023/04/01 08:03:54;;;;;;;1999.90;999.90;;;18.90;99.90;;;;;;5020760;28;20559;-71
2023/04/01 08:06:42;;;;;;;1999.90;999.90;;;18.90;99.90;;;;;;5047927;28;20025;-70
2023/04/01 08:09:28;;;;;;;1999.90;999.90;;;18.80;99.90;;;;;;5033356;28;20041;-70
2023/04/01 08:12:13;;;;;;;1999.90;999.90;;;18.90;99.90;;;;;;5039175;28;20095;-69
2023/04/01 08:14:54;;;;;;;1999.90;999.90;;;18.80;99.90;;;;;;5031698;28;20049;-71
2023/04/01 08:17:40;;;;;;;1999.90;999.90;;;18.80;99.90;;;;;;5028263;28;20037;-70
2023/04/01 08:20:38;;;;;;;1999.90;999.90;;;18.80;99.90;;;;;;5028469;28;20065;-70
2023/04/01 08:23:22;;;;;;;1999.90;999.90;;;18.70;99.90;;;;;;5029148;28;20029;-69
2023/04/01 08:26:19;;;;;;;1999.90;999.90;;;18.70;99.90;;;;;;5030000;28;20025;-70
2023/04/01 08:29:14;;;;;;;1999.90;999.90;;;18.70;99.90;;;;;;5028905;28;20484;-70
2023/04/01 08:32:03;;;;;;;1999.90;999.90;;;18.70;99.90;;;;;;5029344;28;20030;-70
2023/04/01 08:34:41;;;;;;;1999.90;999.90;;;18.70;99.90;;;;;;5029306;28;20037;-71
2023/04/01 08:37:22;;;;;;;1999.90;999.90;;;18.70;99.90;;;;;;5031386;28;20041;-73
2023/04/01 08:40:03;;;;;;;1999.90;999.90;;;18.70;99.90;;;;;;5031451;28;20036;-72
2023/04/01 08:43:00;;;;;;;1999.90;999.90;;;18.70;99.90;;;;;;5027906;28;20155;-72
2023/04/01 08:45:31;;;;;;;1999.90;999.90;;;18.60;99.90;;;;;;5035257;28;20033;-71
2023/04/01 08:48:27;;;;;;;1999.90;999.90;;;18.60;99.90;;;;;;5029873;28;20040;-72
2023/04/01 08:51:24;;;;;;;1999.90;999.90;;;18.60;99.90;;;;;;5036537;28;20021;-71
2023/04/01 08:54:05;;;;;;;1999.90;999.90;;;18.60;99.90;;;;;;5027977;28;20484;-71
2023/04/01 08:56:42;;;;;;;1999.90;999.90;;;18.60;99.90;;;;;;5028202;28;20814;-70
2023/04/01 08:59:30;;;;;;;1999.90;999.90;;;18.50;99.90;;;;;;5030099;28;20140;-71
2023/04/01 09:02:34;;;;;;;1999.90;999.90;;;18.50;99.90;;;;;;5034565;28;20392;-71
2023/04/01 09:05:14;;;;;;;1999.90;999.90;;;18.50;99.90;;;;;;5035760;28;20036;-70
2023/04/01 09:08:05;;;;;;;1999.90;999.90;;;18.40;99.90;;;;;;5036595;28;20537;-70
2023/04/01 09:11:16;;;;;;;1999.90;999.90;;;18.30;99.90;;;;;;5035218;28;20074;-72
2023/04/01 09:13:56;;;;;;;1999.90;999.90;;;18.20;99.90;;;;;;5035085;28;20021;-72
2023/04/01 09:16:41;;;;;;;1999.90;999.90;;;18.10;99.90;;;;;;5036948;28;20073;-70
2023/04/01 09:19:43;;;;;;;1999.90;999.90;;;18.10;99.90;;;;;;5032091;28;20021;-70
2023/04/01 09:22:22;;;;;;;1999.90;999.90;;;18.00;99.90;;;;;;5025815;28;20277;-69
2023/04/01 09:25:20;;;;;;;1999.90;999.90;;;18.00;99.90;;;;;;5029830;28;20032;-72
2023/04/01 09:28:18;;;;;;;1999.90;999.90;;;17.90;99.90;;;;;;5035669;28;20511;-71
2023/04/01 09:31:29;;;;;;;1999.90;999.90;;;17.90;99.90;;;;;;5036238;28;20032;-71
2023/04/01 09:34:41;;;;;;;1999.90;999.90;;;17.90;99.90;;;;;;5028746;28;20041;-71
2023/04/01 09:37:21;;;;;;;1999.90;999.90;;;17.80;99.90;;;;;;5022949;28;20046;-71
2023/04/01 09:40:10;;;;;;;1999.90;999.90;;;17.80;99.90;;;;;;5037215;28;20481;-70
2023/04/01 09:42:40;;;;;;;1999.90;999.90;;;17.80;99.90;;;;;;5023172;28;20064;-70
2023/04/01 09:45:37;;;;;;;1999.90;999.90;;;17.80;99.90;;;;;;5027436;28;20029;-70
2023/04/01 09:48:20;;;;;;;1999.90;999.90;;;17.80;99.90;;;;;;5014553;28;20133;-71
2023/04/01 09:51:02;;;;;;;1999.90;999.90;;;17.80;99.90;;;;;;5027571;28;20057;-69
2023/04/01 09:53:44;;;;;;;1999.90;999.90;;;17.80;99.90;;;;;;5031997;28;20052;-70
2023/04/01 09:56:18;;;;;;;1999.90;999.90;;;17.80;99.90;;;;;;5028650;28;20040;-70
2023/04/01 09:59:07;;;;;;;1999.90;999.90;;;17.90;99.90;;;;;;5033371;28;20119;-71
2023/04/01 10:02:04;;;;;;;1999.90;999.90;;;17.90;99.90;;;;;;5025890;28;20025;-70
2023/04/01 10:04:49;;;;;;;1999.90;999.90;;;17.90;99.90;;;;;;5031966;28;20029;-71
2023/04/01 10:07:26;;;;;;;1999.90;999.90;;;17.90;99.90;;;;;;5026489;28;20033;-70
2023/04/01 10:10:25;;;;;;;1999.90;999.90;;;17.90;99.90;;;;;;5029431;28;20056;-69
2023/04/01 10:13:17;;;;;;;1999.90;999.90;;;17.90;99.90;;;;;;5029034;28;20036;-70
2023/04/01 10:16:09;;;;;;;1999.90;999.90;;;17.80;99.90;;;;;;5035641;28;20036;-71
2023/04/01 10:18:55;;;;;;;1999.90;999.90;;;17.80;99.90;;;;;;5026286;28;20029;-71
2023/04/01 10:22:07;;;;;;;1999.90;999.90;;;17.70;99.90;;;;;;5033984;28;20361;-71
2023/04/01 10:24:43;;;;;;;1999.90;999.90;;;17.70;99.90;;;;;;5012222;28;20042;-70
2023/04/01 10:27:28;;;;;;;1999.90;999.90;;;17.70;99.90;;;;;;5033950;28;20113;-71
2023/04/01 10:30:19;;;;;;;1999.90;999.90;;;17.70;99.90;;;;;;5032590;28;20035;-71
2023/04/01 10:33:15;;;;;;;1999.90;999.90;;;17.70;99.90;;;;;;5031237;28;20022;-72
2023/04/01 10:36:17;;;;;;;1999.90;999.90;;;17.70;99.90;;;;;;5029563;28;20400;-70
2023/04/01 10:39:18;;;;;;;1999.90;999.90;;;17.70;99.90;;;;;;5006585;28;20048;-72
2023/04/01 10:42:22;;;;;;;1999.90;999.90;;;17.70;99.90;;;;;;5026121;28;20418;-71
2023/04/01 10:45:26;;;;;;;1999.90;999.90;;;17.60;99.90;;;;;;5031849;28;20108;-73
2023/04/01 10:48:11;;;;;;;1999.90;999.90;;;17.60;99.90;;;;;;5026579;28;20067;-71
2023/04/01 10:51:09;;;;;;;1999.90;999.90;;;17.60;99.90;;;;;;5039737;28;20036;-71
2023/04/01 10:53:51;;;;;;;1999.90;999.90;;;17.60;99.90;;;;;;5033413;28;20112;-70
2023/04/01 10:56:34;;;;;;;1999.90;999.90;;;17.50;99.90;;;;;;5035742;28;20049;-71
2023/04/01 10:59:27;;;;;;;1999.90;999.90;;;17.50;99.90;;;;;;5035051;28;20048;-70
2023/04/01 11:02:07;;;;;;;1999.90;999.90;;;17.40;99.90;;;;;;5037611;28;20095;-71
2023/04/01 11:05:18;;;;;;;1999.90;999.90;;;17.30;99.90;;;;;;5035028;28;20494;-70
2023/04/01 11:08:25;;;;;;;1999.90;999.90;;;17.30;99.90;;;;;;5035461;28;20508;-71
2023/04/01 11:11:14;;;;;;;1999.90;999.90;;;17.20;99.90;;;;;;5042120;28;20056;-70
2023/04/01 11:13:56;;;;;;;1999.90;999.90;;;17.10;99.90;;;;;;5023088;28;20567;-69
2023/04/01 11:16:39;;;;;;;1999.90;999.90;;;17.10;99.90;;;;;;5035848;28;20036;-70
2023/04/01 11:19:43;;;;;;;1999.90;999.90;;;17.00;99.90;;;;;;5029231;28;20061;-69
2023/04/01 11:22:31;;;;;;;1999.90;999.90;;;16.90;99.90;;;;;;5037875;28;20380;-70
2023/04/01 11:25:22;;;;;;;1999.90;999.90;;;16.90;99.90;;;;;;5030334;28;20025;-69
2023/04/01 11:28:30;;;;;;;1999.90;999.90;;;16.80;99.90;;;;;;5035792;28;20025;-70
2023/04/01 11:30:58;;;;;;;1999.90;999.90;;;16.80;99.90;;;;;;5029341;28;20031;-69
2023/04/01 11:33:31;;;;;;;1999.90;999.90;;;16.70;99.90;;;;;;5032778;28;20022;-68
2023/04/01 11:36:29;;;;;;;1999.90;999.90;;;16.70;99.90;;;;;;5032382;28;20041;-68
2023/04/01 11:39:21;;;;;;;1999.90;999.90;;;16.70;99.90;;;;;;5037349;28;20502;-70
2023/04/01 11:41:57;;;;;;;1999.90;999.90;;;16.60;99.90;;;;;;5035290;28;20026;-70
2023/04/01 11:44:35;;;;;;;1999.90;999.90;;;16.60;99.90;;;;;;5034195;28;20515;-69
2023/04/01 11:47:39;;;;;;;1999.90;999.90;;;16.50;99.90;;;;;;5032059;28;20053;-69
2023/04/01 11:50:27;;;;;;;1999.90;999.90;;;16.50;99.90;;;;;;5036181;28;20136;-69
2023/04/01 11:53:39;;;;;;;1999.90;999.90;;;16.40;99.90;;;;;;5032843;28;20022;-70
2023/04/01 11:56:30;;;;;;;1999.90;999.90;;;16.40;99.90;;;;;;5036612;28;20120;-69
2023/04/01 11:59:09;;;;;;;1999.90;999.90;;;16.40;99.90;;;;;;5031956;28;20032;-71
2023/04/01 12:01:55;;;;;;;1999.90;999.90;;;16.30;99.90;;;;;;5034710;28;20064;-70
2023/04/01 12:04:25;;;;;;;1999.90;999.90;;;16.30;99.90;;;;;;5027897;28;20029;-69
2023/04/01 12:07:00;;;;;;;1999.90;999.90;;;16.30;99.90;;;;;;5041319;28;20029;-69
2023/04/01 12:09:36;;;;;;;1999.90;999.90;;;16.30;99.90;;;;;;5033643;28;20037;-70
2023/04/01 12:12:18;;;;;;;1999.90;999.90;;;16.30;99.90;;;;;;5032695;28;20025;-71
2023/04/01 12:14:55;;;;;;;1999.90;999.90;;;16.20;99.90;;;;;;5035124;28;20082;-70
2023/04/01 12:18:01;;;;;;;1999.90;999.90;;;16.20;99.90;;;;;;5024385;28;20131;-71
2023/04/01 12:20:31;;;;;;;1999.90;999.90;;;16.20;99.90;;;;;;5011610;28;20045;-70
2023/04/01 12:23:18;;;;;;;1999.90;999.90;;;16.20;99.90;;;;;;5036587;28;20025;-69
2023/04/01 12:26:01;;;;;;;1999.90;999.90;;;16.20;99.90;;;;;;5033006;28;20039;-69
2023/04/01 12:28:40;;;;;;;1999.90;999.90;;;16.20;99.90;;;;;;5033176;28;20154;-69
2023/04/01 12:31:19;;;;;;;1999.90;999.90;;;16.20;99.90;;;;;;5037348;28;20070;-70
2023/04/01 12:34:24;;;;;;;1999.90;999.90;;;16.20;99.90;;;;;;5030395;28;20053;-70
2023/04/01 12:37:04;;;;;;;1999.90;999.90;;;16.30;99.90;;;;;;5029280;28;20541;-70
2023/04/01 12:39:50;;;;;;;1999.90;999.90;;;16.30;99.90;;;;;;5027013;28;20079;-69
2023/04/01 12:42:41;;;;;;;1999.90;999.90;;;16.30;99.90;;;;;;5035995;28;20025;-68
2023/04/01 12:45:35;;;;;;;1999.90;999.90;;;16.20;99.90;;;;;;5032948;28;20095;-69
2023/04/01 12:48:05;;;;;;;1999.90;999.90;;;16.30;99.90;;;;;;5028471;28;20050;-67
2023/04/01 12:50:54;;;;;;;1999.90;999.90;;;16.20;99.90;;;;;;5028743;28;20068;-69
2023/04/01 12:53:53;;;;;;;1999.90;999.90;;;16.20;99.90;;;;;;5037581;28;20059;-69
2023/04/01 12:56:47;;;;;;;1999.90;999.90;;;16.20;99.90;;;;;;5032568;28;20037;-70